Time;durP1;ratioP1;P1;durP2;ratioP2;P2;SDS_P1;SDS_P2;PMS_P1;PMS_P2;Temp;Humidity;BMP_temperature;BMP_pressure;BME280_temperature;BME280_humidity;BME280_pressure;Samples;Min_cycle;Max_cycle;Signal;HPM_P1;HPM_P2
2021/06/19 00:02:16;;;;;;;9.15;6.40;;;;;;;;;;4940713;29;20035;-78
2021/06/19 00:04:42;;;;;;;8.20;6.03;;;;;;;;;;4940465;29;20058;-77
2021/06/19 00:07:08;;;;;;;8.32;5.97;;;;;;;;;;4940656;29;20036;-78
2021/06/19 00:09:34;;;;;;;10.80;6.63;;;;;;;;;;4940680;29;20027;-78
2021/06/19 00:12:01;;;;;;;8.73;6.00;;;;;;;;;;4940792;29;20019;-78
2021/06/19 00:14:27;;;;;;;8.38;6.15;;;;;;;;;;4940601;29;20020;-78
2021/06/19 00:16:53;;;;;;;9.93;5.97;;;;;;;;;;4940674;29;20023;-78
2021/06/19 00:19:20;;;;;;;15.00;5.85;;;;;;;;;;4940358;29;20024;-78
2021/06/19 00:21:46;;;;;;;8.85;6.20;;;;;;;;;;4923551;29;20075;-78
2021/06/19 00:24:18;;;;;;;8.23;6.45;;;;;;;;;;4923762;29;20039;-78
2021/06/19 00:26:44;;;;;;;12.73;6.55;;;;;;;;;;4940419;29;20032;-78
2021/06/19 00:29:10;;;;;;;8.55;6.00;;;;;;;;;;4940113;29;20028;-78
2021/06/19 00:31:36;;;;;;;9.55;5.95;;;;;;;;;;4940179;29;20478;-78
2021/06/19 00:34:02;;;;;;;11.23;6.35;;;;;;;;;;4940452;29;20434;-78
2021/06/19 00:36:28;;;;;;;9.07;6.07;;;;;;;;;;4940210;29;20038;-78
2021/06/19 00:38:54;;;;;;;7.68;5.70;;;;;;;;;;4940128;29;20023;-78
2021/06/19 00:41:20;;;;;;;8.18;5.22;;;;;;;;;;4923515;29;20489;-78
2021/06/19 00:43:47;;;;;;;7.53;6.10;;;;;;;;;;4940016;29;20445;-78
2021/06/19 00:46:13;;;;;;;8.45;5.85;;;;;;;;;;4940029;29;20299;-78
2021/06/19 00:48:39;;;;;;;9.77;5.97;;;;;;;;;;4939799;29;20042;-78
2021/06/19 00:51:05;;;;;;;11.50;6.50;;;;;;;;;;4922887;29;20466;-78
2021/06/19 00:53:32;;;;;;;11.18;6.47;;;;;;;;;;4939954;29;20054;-78
2021/06/19 00:55:58;;;;;;;9.82;6.05;;;;;;;;;;4923028;29;20292;-78
2021/06/19 00:58:24;;;;;;;9.18;6.35;;;;;;;;;;4940043;29;20087;-78
2021/06/19 01:00:50;;;;;;;10.65;6.40;;;;;;;;;;4940018;29;20359;-78
2021/06/19 01:03:16;;;;;;;9.85;6.80;;;;;;;;;;4939765;29;20303;-78
2021/06/19 01:05:44;;;;;;;7.60;6.35;;;;;;;;;;4939762;29;20067;-78
2021/06/19 01:08:10;;;;;;;10.68;6.05;;;;;;;;;;4939705;29;20027;-78
2021/06/19 01:10:36;;;;;;;9.77;6.95;;;;;;;;;;4922834;29;20047;-78
2021/06/19 01:13:02;;;;;;;12.65;6.75;;;;;;;;;;4939947;29;20039;-78
2021/06/19 01:15:29;;;;;;;10.15;6.65;;;;;;;;;;4939710;29;20023;-78
2021/06/19 01:17:55;;;;;;;13.00;6.45;;;;;;;;;;4939737;29;20036;-78
2021/06/19 01:20:21;;;;;;;7.43;6.10;;;;;;;;;;4939739;29;20031;-78
2021/06/19 01:22:49;;;;;;;9.88;6.03;;;;;;;;;;4939592;29;20035;-78
2021/06/19 01:25:20;;;;;;;10.00;6.15;;;;;;;;;;4922972;29;20039;-78
2021/06/19 01:27:52;;;;;;;12.23;5.82;;;;;;;;;;4939778;29;20070;-78
2021/06/19 01:30:18;;;;;;;8.20;6.03;;;;;;;;;;4922525;29;20039;-78
2021/06/19 01:32:44;;;;;;;11.07;5.63;;;;;;;;;;4939474;29;20020;-78
2021/06/19 01:35:10;;;;;;;9.88;5.55;;;;;;;;;;4939442;29;20423;-78
2021/06/19 01:37:37;;;;;;;8.05;5.53;;;;;;;;;;4939533;29;20040;-78
2021/06/19 01:40:05;;;;;;;9.10;6.65;;;;;;;;;;4939972;29;20075;-78
2021/06/19 01:42:31;;;;;;;9.55;6.15;;;;;;;;;;4943294;29;20427;-78
2021/06/19 01:44:57;;;;;;;9.02;6.10;;;;;;;;;;4943439;29;20071;-78
2021/06/19 01:47:27;;;;;;;9.85;6.45;;;;;;;;;;4943118;29;20031;-78
2021/06/19 01:49:53;;;;;;;8.30;5.85;;;;;;;;;;4943045;29;20065;-78
2021/06/19 01:52:19;;;;;;;10.75;6.00;;;;;;;;;;4943358;29;20032;-77
2021/06/19 01:54:45;;;;;;;7.65;5.82;;;;;;;;;;4943274;29;20146;-78
2021/06/19 01:57:11;;;;;;;10.73;5.60;;;;;;;;;;4943204;29;20020;-78
2021/06/19 01:59:37;;;;;;;7.90;5.63;;;;;;;;;;4942948;29;20024;-78
2021/06/19 02:02:04;;;;;;;9.70;5.60;;;;;;;;;;4942877;29;20453;-78
2021/06/19 02:04:31;;;;;;;8.95;6.25;;;;;;;;;;4942632;29;20047;-78
2021/06/19 02:06:57;;;;;;;9.00;6.05;;;;;;;;;;4942970;29;20028;-77
2021/06/19 02:09:24;;;;;;;8.20;5.63;;;;;;;;;;4942961;29;20028;-78
2021/06/19 02:11:50;;;;;;;7.57;5.72;;;;;;;;;;4942790;29;20036;-78
2021/06/19 02:14:16;;;;;;;9.43;5.68;;;;;;;;;;4925834;29;20019;-78
2021/06/19 02:16:43;;;;;;;8.65;6.00;;;;;;;;;;4925782;29;20024;-78
2021/06/19 02:19:09;;;;;;;19.45;6.32;;;;;;;;;;4942724;29;20048;-78
2021/06/19 02:21:35;;;;;;;7.65;5.78;;;;;;;;;;4942502;29;20047;-78
2021/06/19 02:24:02;;;;;;;7.97;6.28;;;;;;;;;;4942719;29;20099;-78
2021/06/19 02:26:28;;;;;;;6.47;5.78;;;;;;;;;;4925589;29;20032;-78
2021/06/19 02:28:55;;;;;;;8.43;5.70;;;;;;;;;;4942510;29;20028;-78
2021/06/19 02:31:21;;;;;;;11.75;5.68;;;;;;;;;;4942411;29;20024;-78
2021/06/19 02:33:47;;;;;;;8.52;5.60;;;;;;;;;;4942544;29;20114;-78
2021/06/19 02:36:14;;;;;;;10.05;5.90;;;;;;;;;;4925441;29;20024;-78
2021/06/19 02:38:40;;;;;;;8.93;5.90;;;;;;;;;;4925715;29;20538;-78
2021/06/19 02:41:06;;;;;;;11.43;6.47;;;;;;;;;;4942434;29;20031;-78
2021/06/19 02:43:32;;;;;;;8.75;6.13;;;;;;;;;;4942347;29;20039;-78
2021/06/19 02:45:59;;;;;;;9.55;6.53;;;;;;;;;;4942306;29;20032;-78
2021/06/19 02:48:28;;;;;;;13.77;6.50;;;;;;;;;;4942224;29;20054;-77
2021/06/19 02:50:55;;;;;;;12.50;6.93;;;;;;;;;;4941804;29;20172;-78
2021/06/19 02:53:21;;;;;;;12.43;6.43;;;;;;;;;;4940923;29;20031;-78
2021/06/19 02:55:47;;;;;;;18.33;6.32;;;;;;;;;;4924800;29;20031;-78
2021/06/19 02:58:14;;;;;;;14.18;6.78;;;;;;;;;;4941919;29;20466;-78
2021/06/19 03:00:42;;;;;;;13.77;6.30;;;;;;;;;;4925147;29;20393;-77
2021/06/19 03:03:08;;;;;;;11.95;5.88;;;;;;;;;;4941679;29;20119;-77
2021/06/19 03:05:35;;;;;;;10.25;6.68;;;;;;;;;;4924879;29;20084;-78
2021/06/19 03:08:01;;;;;;;6.57;5.93;;;;;;;;;;4941723;29;20395;-78
2021/06/19 03:10:29;;;;;;;10.10;5.78;;;;;;;;;;4925104;29;20067;-78
2021/06/19 03:12:55;;;;;;;10.57;6.05;;;;;;;;;;4941862;29;20059;-78
2021/06/19 03:15:21;;;;;;;9.57;5.68;;;;;;;;;;4909046;29;20063;-78
2021/06/19 03:17:47;;;;;;;11.43;6.13;;;;;;;;;;4924888;29;20036;-78
2021/06/19 03:20:15;;;;;;;11.40;5.93;;;;;;;;;;4941507;29;20024;-78
2021/06/19 03:22:54;;;;;;;8.85;5.63;;;;;;;;;;4941514;29;20031;-78
2021/06/19 03:25:24;;;;;;;10.40;6.20;;;;;;;;;;4941577;29;20031;-78
2021/06/19 03:27:50;;;;;;;10.80;5.50;;;;;;;;;;4941414;29;20110;-78
2021/06/19 03:30:18;;;;;;;6.97;5.85;;;;;;;;;;4941220;29;20031;-78
2021/06/19 03:32:44;;;;;;;10.27;5.63;;;;;;;;;;4941187;29;20023;-78
2021/06/19 03:35:10;;;;;;;9.30;6.25;;;;;;;;;;4941302;29;20102;-78
2021/06/19 03:37:36;;;;;;;9.00;6.40;;;;;;;;;;4940999;29;20027;-78
2021/06/19 03:40:04;;;;;;;10.73;6.28;;;;;;;;;;4924596;29;20043;-78
2021/06/19 03:42:30;;;;;;;11.43;6.78;;;;;;;;;;4924299;29;20039;-78
2021/06/19 03:44:56;;;;;;;10.45;6.40;;;;;;;;;;4924442;29;20087;-78
2021/06/19 03:47:22;;;;;;;10.00;6.75;;;;;;;;;;4940808;29;20039;-79
2021/06/19 03:49:48;;;;;;;14.43;6.68;;;;;;;;;;4924149;29;20485;-78
2021/06/19 03:52:14;;;;;;;12.50;7.43;;;;;;;;;;4924245;29;20318;-78
2021/06/19 03:54:40;;;;;;;8.90;6.43;;;;;;;;;;4941145;29;20063;-78
2021/06/19 03:57:07;;;;;;;10.50;6.60;;;;;;;;;;4941026;29;20032;-78
2021/06/19 03:59:34;;;;;;;7.88;6.72;;;;;;;;;;4940735;29;20410;-78
2021/06/19 04:02:00;;;;;;;10.40;7.10;;;;;;;;;;4940791;29;20032;-78
2021/06/19 04:04:26;;;;;;;8.02;6.13;;;;;;;;;;4923310;29;20379;-78
2021/06/19 04:06:53;;;;;;;15.23;7.05;;;;;;;;;;4940776;29;20059;-79
2021/06/19 04:09:19;;;;;;;9.88;7.10;;;;;;;;;;4923809;29;20027;-78
2021/06/19 04:11:45;;;;;;;14.90;7.10;;;;;;;;;;4940483;29;20430;-78
2021/06/19 04:14:11;;;;;;;13.40;6.80;;;;;;;;;;4923729;29;20311;-78
2021/06/19 04:16:37;;;;;;;15.32;7.57;;;;;;;;;;4940401;29;20031;-78
2021/06/19 04:19:03;;;;;;;11.77;6.90;;;;;;;;;;4940417;29;20026;-78
2021/06/19 04:21:29;;;;;;;8.88;7.05;;;;;;;;;;4923862;29;20036;-78
2021/06/19 04:23:55;;;;;;;9.40;7.05;;;;;;;;;;4940326;29;20038;-78
2021/06/19 04:26:22;;;;;;;11.98;6.95;;;;;;;;;;4940313;29;20126;-78
2021/06/19 04:28:48;;;;;;;9.88;6.97;;;;;;;;;;4940299;29;20071;-77
2021/06/19 04:31:14;;;;;;;10.73;7.60;;;;;;;;;;4940248;29;20027;-77
2021/06/19 04:33:40;;;;;;;10.70;7.25;;;;;;;;;;4940061;29;20027;-78
2021/06/19 04:36:08;;;;;;;11.95;7.20;;;;;;;;;;4940129;29;20063;-77
2021/06/19 04:38:34;;;;;;;13.00;7.47;;;;;;;;;;4923349;29;20024;-78
2021/06/19 04:41:07;;;;;;;11.93;7.25;;;;;;;;;;4940151;29;20308;-78
2021/06/19 04:44:05;;;;;;;11.30;7.60;;;;;;;;;;4940133;29;20032;-78
2021/06/19 04:46:28;;;;;;;8.45;7.35;;;;;;;;;;4939570;29;20034;-78
2021/06/19 04:48:54;;;;;;;11.68;7.47;;;;;;;;;;4923204;29;20059;-78
2021/06/19 04:51:20;;;;;;;9.63;7.50;;;;;;;;;;4939927;29;20027;-78
2021/06/19 04:53:46;;;;;;;10.45;7.75;;;;;;;;;;4939866;29;20502;-78
2021/06/19 04:56:13;;;;;;;17.27;10.40;;;;;;;;;;4940068;29;20050;-78
2021/06/19 04:58:39;;;;;;;16.10;9.85;;;;;;;;;;4923175;29;20032;-78
2021/06/19 05:01:05;;;;;;;20.90;10.07;;;;;;;;;;4939554;29;20028;-78
2021/06/19 05:03:32;;;;;;;19.00;10.90;;;;;;;;;;4939710;29;20056;-78
2021/06/19 05:06:00;;;;;;;16.65;9.38;;;;;;;;;;4939896;29;20110;-78
2021/06/19 05:08:26;;;;;;;10.73;8.32;;;;;;;;;;4939744;29;20023;-78
2021/06/19 05:10:52;;;;;;;13.88;7.82;;;;;;;;;;4939853;29;20053;-78
2021/06/19 05:13:18;;;;;;;11.02;7.75;;;;;;;;;;4939822;29;20106;-78
2021/06/19 05:15:45;;;;;;;13.73;8.07;;;;;;;;;;4938919;29;20024;-78
2021/06/19 05:18:11;;;;;;;9.48;7.53;;;;;;;;;;4939939;29;20044;-78
2021/06/19 05:20:37;;;;;;;9.43;7.20;;;;;;;;;;4939603;29;20035;-78
2021/06/19 05:23:08;;;;;;;8.50;7.10;;;;;;;;;;4939736;29;20443;-78
2021/06/19 05:25:36;;;;;;;9.85;7.28;;;;;;;;;;4939762;29;20111;-78
2021/06/19 05:28:02;;;;;;;14.05;8.00;;;;;;;;;;4939634;29;20375;-78
2021/06/19 05:30:29;;;;;;;13.63;8.23;;;;;;;;;;4922762;29;20035;-77
2021/06/19 05:32:55;;;;;;;9.93;7.13;;;;;;;;;;4939434;29;20114;-77
2021/06/19 05:35:21;;;;;;;14.40;8.57;;;;;;;;;;4922935;29;20036;-78
2021/06/19 05:37:47;;;;;;;12.63;9.68;;;;;;;;;;4939256;29;20027;-78
2021/06/19 05:40:13;;;;;;;15.50;9.52;;;;;;;;;;4939708;29;20035;-78
2021/06/19 05:42:39;;;;;;;18.00;10.75;;;;;;;;;;4922722;29;20019;-78
2021/06/19 05:45:06;;;;;;;15.45;9.73;;;;;;;;;;4939412;29;20086;-78
2021/06/19 05:47:32;;;;;;;11.30;8.23;;;;;;;;;;4939402;29;20415;-79
2021/06/19 05:49:58;;;;;;;12.73;8.07;;;;;;;;;;4939230;29;20318;-79
2021/06/19 05:52:25;;;;;;;11.23;8.50;;;;;;;;;;4939329;29;20434;-84
2021/06/19 05:54:52;;;;;;;11.93;8.27;;;;;;;;;;4922963;29;20036;-79
2021/06/19 05:57:18;;;;;;;10.38;8.43;;;;;;;;;;4939474;29;20043;-82
2021/06/19 05:59:44;;;;;;;10.30;7.93;;;;;;;;;;4939512;29;20095;-82
2021/06/19 06:02:10;;;;;;;12.23;8.65;;;;;;;;;;4923110;29;20042;-83
2021/06/19 06:04:36;;;;;;;17.48;11.00;;;;;;;;;;4939501;29;20056;-83
2021/06/19 06:07:03;;;;;;;11.70;7.85;;;;;;;;;;4939593;29;20028;-83
2021/06/19 06:09:29;;;;;;;11.30;6.82;;;;;;;;;;4939785;29;20035;-83
2021/06/19 06:11:55;;;;;;;9.60;7.93;;;;;;;;;;4940014;29;20026;-83
2021/06/19 06:14:22;;;;;;;11.25;7.50;;;;;;;;;;4939531;29;20347;-83
2021/06/19 06:16:48;;;;;;;9.80;7.70;;;;;;;;;;4922859;29;20398;-84
2021/06/19 06:19:16;;;;;;;9.32;7.55;;;;;;;;;;4939453;29;20019;-82
2021/06/19 06:21:42;;;;;;;11.02;7.10;;;;;;;;;;4922887;29;20039;-81
2021/06/19 06:24:09;;;;;;;8.73;6.70;;;;;;;;;;4922567;29;20027;-80
2021/06/19 06:26:35;;;;;;;15.40;7.47;;;;;;;;;;4941066;29;20034;-83
2021/06/19 06:29:01;;;;;;;10.63;6.93;;;;;;;;;;4942814;29;20114;-83
2021/06/19 06:31:27;;;;;;;7.88;6.75;;;;;;;;;;4942752;29;20115;-83
2021/06/19 06:33:53;;;;;;;7.68;6.78;;;;;;;;;;4926089;29;20110;-82
2021/06/19 06:36:19;;;;;;;8.23;6.55;;;;;;;;;;4942765;29;20023;-82
2021/06/19 06:38:45;;;;;;;11.35;6.82;;;;;;;;;;4925750;29;20020;-82
2021/06/19 06:41:11;;;;;;;9.20;6.88;;;;;;;;;;4925625;29;20340;-81
2021/06/19 06:43:37;;;;;;;8.23;7.03;;;;;;;;;;4942393;29;20099;-81
2021/06/19 06:46:03;;;;;;;7.57;6.75;;;;;;;;;;4942404;29;20036;-81
2021/06/19 06:48:30;;;;;;;8.20;6.68;;;;;;;;;;4942296;29;20426;-82
2021/06/19 06:50:59;;;;;;;13.00;6.60;;;;;;;;;;4942143;29;20027;-82
2021/06/19 06:53:25;;;;;;;8.50;6.45;;;;;;;;;;4942248;29;20028;-82
2021/06/19 06:55:51;;;;;;;12.43;6.10;;;;;;;;;;4925688;29;20132;-81
2021/06/19 06:58:17;;;;;;;14.15;6.63;;;;;;;;;;4925629;29;20067;-82
2021/06/19 07:00:43;;;;;;;10.07;6.05;;;;;;;;;;4942012;29;20020;-82
2021/06/19 07:03:09;;;;;;;9.57;5.60;;;;;;;;;;4941844;29;20039;-82
2021/06/19 07:16:37;;;;;;;7.55;5.60;;;;;;;;;;5148987;27;20391;-84
2021/06/19 07:19:03;;;;;;;9.57;4.93;;;;;;;;;;5114682;28;20028;-84
2021/06/19 07:21:30;;;;;;;7.45;5.05;;;;;;;;;;5114691;28;20020;-85
2021/06/19 07:23:56;;;;;;;6.60;5.07;;;;;;;;;;5114861;28;20415;-85
2021/06/19 07:26:23;;;;;;;10.90;5.07;;;;;;;;;;5113860;28;20110;-85
2021/06/19 07:28:49;;;;;;;8.93;5.40;;;;;;;;;;5114171;28;20306;-84
2021/06/19 07:31:15;;;;;;;23.17;15.52;;;;;;;;;;5114889;28;20024;-84
2021/06/19 07:33:42;;;;;;;9.80;8.80;;;;;;;;;;5114838;28;20317;-85
2021/06/19 07:36:08;;;;;;;7.35;4.60;;;;;;;;;;5114668;28;20035;-85
2021/06/19 07:38:34;;;;;;;7.57;5.10;;;;;;;;;;5113776;28;20032;-84
2021/06/19 07:41:01;;;;;;;9.80;4.35;;;;;;;;;;5113952;28;20329;-85
2021/06/19 07:43:27;;;;;;;6.57;4.88;;;;;;;;;;5113786;28;20405;-85
2021/06/19 07:45:54;;;;;;;6.30;4.50;;;;;;;;;;5114863;28;20031;-86
2021/06/19 07:48:20;;;;;;;7.35;4.53;;;;;;;;;;5112148;28;20035;-83
2021/06/19 07:50:46;;;;;;;12.77;4.78;;;;;;;;;;5113701;28;20024;-81
2021/06/19 07:53:12;;;;;;;9.95;5.10;;;;;;;;;;5113946;28;20016;-82
2021/06/19 07:55:38;;;;;;;10.10;4.72;;;;;;;;;;5112944;28;20034;-80
2021/06/19 07:58:05;;;;;;;4.68;4.18;;;;;;;;;;5113999;28;20322;-80
2021/06/19 08:00:31;;;;;;;5.32;4.60;;;;;;;;;;5113761;28;20034;-80
2021/06/19 08:03:01;;;;;;;5.85;4.38;;;;;;;;;;5113723;28;20352;-80
2021/06/19 08:05:28;;;;;;;14.73;5.05;;;;;;;;;;5112401;28;20024;-80
2021/06/19 08:07:54;;;;;;;6.97;5.00;;;;;;;;;;5113792;28;20065;-81
2021/06/19 08:10:20;;;;;;;8.43;4.68;;;;;;;;;;5113800;28;20024;-80
2021/06/19 08:12:46;;;;;;;5.25;4.47;;;;;;;;;;5113167;28;20406;-80
2021/06/19 08:15:13;;;;;;;9.30;4.28;;;;;;;;;;5113321;28;20060;-80
2021/06/19 08:17:39;;;;;;;11.80;4.68;;;;;;;;;;5093398;28;20021;-80
2021/06/19 08:20:06;;;;;;;11.35;4.63;;;;;;;;;;5079571;28;20040;-80
2021/06/19 08:22:32;;;;;;;9.48;4.00;;;;;;;;;;5079338;28;20035;-80
2021/06/19 08:24:58;;;;;;;8.43;4.22;;;;;;;;;;5079118;28;20028;-81
2021/06/19 08:27:25;;;;;;;7.68;4.60;;;;;;;;;;5079414;28;20025;-80
2021/06/19 08:29:52;;;;;;;5.85;4.82;;;;;;;;;;5078698;28;20053;-80
2021/06/19 08:32:18;;;;;;;6.55;4.47;;;;;;;;;;5079260;28;20028;-80
2021/06/19 08:34:45;;;;;;;6.88;4.55;;;;;;;;;;5079293;28;20035;-80
2021/06/19 08:37:11;;;;;;;7.75;4.00;;;;;;;;;;5079028;28;20021;-80
2021/06/19 08:39:37;;;;;;;7.03;4.10;;;;;;;;;;5079303;28;20024;-81
2021/06/19 08:42:03;;;;;;;9.95;4.30;;;;;;;;;;5079246;28;20119;-80
2021/06/19 08:44:30;;;;;;;8.18;4.32;;;;;;;;;;5079134;28;20033;-80
2021/06/19 08:46:57;;;;;;;8.43;4.13;;;;;;;;;;5079143;28;20032;-80
2021/06/19 08:49:23;;;;;;;5.47;3.80;;;;;;;;;;5077809;28;20033;-81
2021/06/19 08:51:52;;;;;;;8.25;4.45;;;;;;;;;;5078786;28;20333;-80
2021/06/19 08:54:18;;;;;;;11.98;4.07;;;;;;;;;;5078805;28;20036;-80
2021/06/19 08:56:46;;;;;;;7.68;3.80;;;;;;;;;;5078831;28;20037;-80
2021/06/19 08:59:12;;;;;;;7.22;3.75;;;;;;;;;;5078882;28;20054;-79
2021/06/19 09:01:39;;;;;;;8.23;3.90;;;;;;;;;;5078857;28;20033;-80
2021/06/19 09:04:05;;;;;;;12.80;4.55;;;;;;;;;;5079064;28;20035;-80
2021/06/19 09:06:32;;;;;;;7.00;3.55;;;;;;;;;;5078540;28;20021;-80
2021/06/19 09:09:03;;;;;;;6.47;3.85;;;;;;;;;;5077588;28;20115;-80
2021/06/19 09:11:34;;;;;;;8.05;3.72;;;;;;;;;;5078739;28;20088;-80
2021/06/19 09:14:03;;;;;;;11.95;4.30;;;;;;;;;;5078823;28;20032;-80
2021/06/19 09:16:30;;;;;;;7.55;4.10;;;;;;;;;;5077295;28;20040;-80
2021/06/19 09:18:56;;;;;;;8.07;3.50;;;;;;;;;;5078097;28;20031;-80
2021/06/19 09:21:36;;;;;;;8.90;3.35;;;;;;;;;;5078317;28;20021;-80
2021/06/19 09:24:02;;;;;;;10.75;4.03;;;;;;;;;;5078743;28;20291;-81
2021/06/19 09:26:32;;;;;;;5.18;3.40;;;;;;;;;;5078703;28;20129;-80
2021/06/19 09:29:05;;;;;;;10.90;3.65;;;;;;;;;;5077515;28;20025;-80
2021/06/19 09:31:40;;;;;;;6.63;3.40;;;;;;;;;;5078484;28;20074;-80
2021/06/19 09:34:11;;;;;;;6.72;3.35;;;;;;;;;;5078350;28;20401;-79
2021/06/19 09:36:42;;;;;;;9.30;3.90;;;;;;;;;;5078258;28;20414;-81
2021/06/19 09:39:09;;;;;;;14.23;3.47;;;;;;;;;;5078415;28;20047;-80
2021/06/19 09:41:39;;;;;;;7.72;3.47;;;;;;;;;;5078240;28;20025;-80
2021/06/19 09:44:05;;;;;;;6.88;3.35;;;;;;;;;;5077981;28;20113;-80
2021/06/19 09:46:32;;;;;;;10.52;2.97;;;;;;;;;;5077991;28;20099;-80
2021/06/19 09:49:09;;;;;;;7.50;3.70;;;;;;;;;;5076989;28;20021;-80
2021/06/19 09:51:35;;;;;;;8.13;3.88;;;;;;;;;;5076907;28;20027;-80
2021/06/19 09:54:06;;;;;;;5.38;3.53;;;;;;;;;;5078233;28;20028;-80
2021/06/19 09:56:44;;;;;;;6.65;3.30;;;;;;;;;;5077927;28;20042;-80
2021/06/19 09:59:17;;;;;;;5.95;3.72;;;;;;;;;;5077745;28;20032;-80
2021/06/19 10:01:44;;;;;;;7.63;3.60;;;;;;;;;;5078085;28;20025;-81
2021/06/19 10:04:11;;;;;;;12.40;4.07;;;;;;;;;;5077659;28;20406;-80
2021/06/19 10:06:39;;;;;;;7.10;3.50;;;;;;;;;;5077010;28;20440;-81
2021/06/19 10:09:06;;;;;;;7.35;3.28;;;;;;;;;;5077757;28;20402;-80
2021/06/19 10:11:32;;;;;;;6.72;3.83;;;;;;;;;;5077623;28;20042;-80
2021/06/19 10:13:59;;;;;;;9.43;3.72;;;;;;;;;;5076521;28;20024;-80
2021/06/19 10:16:27;;;;;;;11.40;3.75;;;;;;;;;;5077326;28;20044;-81
2021/06/19 10:18:53;;;;;;;7.97;4.40;;;;;;;;;;5076486;28;20056;-81
2021/06/19 10:21:20;;;;;;;8.50;3.53;;;;;;;;;;5077600;28;20020;-80
2021/06/19 10:23:47;;;;;;;8.20;4.07;;;;;;;;;;5077469;28;20025;-80
2021/06/19 10:26:13;;;;;;;7.57;3.63;;;;;;;;;;5077311;28;20021;-80
2021/06/19 10:28:46;;;;;;;5.85;3.60;;;;;;;;;;5077636;28;20017;-80
2021/06/19 10:31:13;;;;;;;9.35;5.40;;;;;;;;;;5077478;28;20025;-81
2021/06/19 10:33:40;;;;;;;10.27;4.63;;;;;;;;;;5077330;28;20428;-80
2021/06/19 10:36:07;;;;;;;7.78;3.88;;;;;;;;;;5077105;28;20325;-80
2021/06/19 10:38:50;;;;;;;7.30;3.83;;;;;;;;;;5077257;28;20314;-80
2021/06/19 10:41:17;;;;;;;7.85;3.70;;;;;;;;;;5077131;28;20027;-80
2021/06/19 10:43:47;;;;;;;6.70;3.75;;;;;;;;;;5076917;28;20048;-80
2021/06/19 10:46:34;;;;;;;9.75;4.03;;;;;;;;;;5077064;28;20082;-80
2021/06/19 10:49:01;;;;;;;8.23;3.83;;;;;;;;;;5077231;28;20467;-81
2021/06/19 10:51:29;;;;;;;7.15;3.63;;;;;;;;;;5076838;28;20417;-80
2021/06/19 10:54:07;;;;;;;5.53;3.85;;;;;;;;;;5077638;28;20031;-80
2021/06/19 10:56:46;;;;;;;5.50;3.75;;;;;;;;;;5077436;28;20287;-81
2021/06/19 10:59:17;;;;;;;11.90;3.85;;;;;;;;;;5077193;28;20020;-80
2021/06/19 11:01:43;;;;;;;9.70;3.85;;;;;;;;;;5077079;28;20314;-80
2021/06/19 11:04:29;;;;;;;9.50;4.30;;;;;;;;;;5076817;28;20461;-80
2021/06/19 11:06:55;;;;;;;6.38;3.83;;;;;;;;;;5076774;28;20027;-80
2021/06/19 11:09:35;;;;;;;4.68;3.58;;;;;;;;;;5077401;28;20021;-81
2021/06/19 11:12:02;;;;;;;6.50;3.50;;;;;;;;;;5076866;28;20089;-81
2021/06/19 11:14:41;;;;;;;5.50;3.80;;;;;;;;;;5075735;28;20135;-80
2021/06/19 11:17:07;;;;;;;7.20;4.57;;;;;;;;;;5076873;28;20029;-81
2021/06/19 11:19:40;;;;;;;8.63;5.00;;;;;;;;;;5077009;28;20040;-82
2021/06/19 11:22:32;;;;;;;11.00;5.53;;;;;;;;;;5077313;28;20322;-81
2021/06/19 11:25:20;;;;;;;6.45;3.40;;;;;;;;;;5075525;28;20116;-79
2021/06/19 11:28:02;;;;;;;7.05;4.20;;;;;;;;;;5076572;28;20024;-84
2021/06/19 11:30:34;;;;;;;7.40;3.60;;;;;;;;;;5075946;28;20361;-79
2021/06/19 11:33:21;;;;;;;6.72;3.38;;;;;;;;;;5076802;28;20028;-80
2021/06/19 11:35:49;;;;;;;7.68;3.50;;;;;;;;;;5076530;28;20111;-79
2021/06/19 11:38:16;;;;;;;7.00;3.45;;;;;;;;;;5076648;28;20070;-79
2021/06/19 11:40:43;;;;;;;6.60;3.10;;;;;;;;;;5076779;28;20059;-80
2021/06/19 11:43:10;;;;;;;6.07;3.72;;;;;;;;;;5076578;28;20111;-80
2021/06/19 11:45:37;;;;;;;6.88;3.03;;;;;;;;;;5076480;28;20150;-80
2021/06/19 11:48:04;;;;;;;5.47;3.35;;;;;;;;;;5076573;28;20464;-80
2021/06/19 11:50:34;;;;;;;4.28;3.13;;;;;;;;;;5076747;28;20023;-80
2021/06/19 11:53:19;;;;;;;9.63;3.08;;;;;;;;;;5080362;28;20021;-80
2021/06/19 11:55:45;;;;;;;5.90;3.20;;;;;;;;;;5080280;28;20035;-80
2021/06/19 11:58:11;;;;;;;6.70;3.67;;;;;;;;;;5080211;28;20025;-80
2021/06/19 12:00:52;;;;;;;6.85;3.40;;;;;;;;;;5080288;28;20410;-80
2021/06/19 12:03:25;;;;;;;6.05;3.22;;;;;;;;;;5079004;28;20082;-80
2021/06/19 12:05:51;;;;;;;3.88;3.25;;;;;;;;;;5079845;28;20437;-80
2021/06/19 12:08:27;;;;;;;6.43;2.85;;;;;;;;;;5080167;28;20044;-80
2021/06/19 12:10:53;;;;;;;5.10;2.85;;;;;;;;;;5079728;28;20020;-80
2021/06/19 12:13:30;;;;;;;11.07;3.50;;;;;;;;;;5079115;28;20318;-80
2021/06/19 12:15:56;;;;;;;4.45;3.10;;;;;;;;;;5078475;28;20384;-80
2021/06/19 12:18:23;;;;;;;4.75;2.90;;;;;;;;;;5079702;28;20074;-80
2021/06/19 12:20:59;;;;;;;5.50;3.50;;;;;;;;;;5079919;28;20051;-80
2021/06/19 12:23:32;;;;;;;5.13;3.25;;;;;;;;;;5079891;28;20026;-80
2021/06/19 12:26:04;;;;;;;8.93;3.20;;;;;;;;;;5079694;28;20036;-79
2021/06/19 12:28:31;;;;;;;3.92;3.05;;;;;;;;;;5079566;28;20028;-79
2021/06/19 12:30:57;;;;;;;5.20;3.03;;;;;;;;;;5079640;28;20056;-79
2021/06/19 12:33:24;;;;;;;5.18;3.22;;;;;;;;;;5080023;28;20027;-79
2021/06/19 12:35:50;;;;;;;4.45;2.90;;;;;;;;;;5079524;28;20048;-79
2021/06/19 12:38:20;;;;;;;3.78;3.22;;;;;;;;;;5079570;28;20024;-80
2021/06/19 12:40:47;;;;;;;2.77;2.53;;;;;;;;;;5079397;28;20029;-79
2021/06/19 12:43:14;;;;;;;3.88;2.88;;;;;;;;;;5079362;28;20421;-80
2021/06/19 12:45:43;;;;;;;7.65;3.15;;;;;;;;;;5079554;28;20322;-80
2021/06/19 12:48:20;;;;;;;6.90;3.20;;;;;;;;;;5079382;28;20027;-80
2021/06/19 12:50:47;;;;;;;11.80;4.15;;;;;;;;;;5079407;28;20032;-79
2021/06/19 12:53:14;;;;;;;11.32;3.30;;;;;;;;;;5078434;28;20036;-79
2021/06/19 12:55:41;;;;;;;5.60;3.10;;;;;;;;;;5079116;28;20021;-80
2021/06/19 12:58:15;;;;;;;7.50;3.00;;;;;;;;;;5078287;28;20047;-80
2021/06/19 13:00:43;;;;;;;8.65;5.13;;;;;;;;;;5079179;28;20024;-80
2021/06/19 13:03:09;;;;;;;7.57;2.90;;;;;;;;;;5078891;28;20426;-80
2021/06/19 13:05:46;;;;;;;6.80;3.17;;;;;;;;;;5077994;28;20424;-80
2021/06/19 13:08:13;;;;;;;3.13;2.83;;;;;;;;;;5079088;28;20410;-79
2021/06/19 13:10:39;;;;;;;3.25;2.72;;;;;;;;;;5078851;28;20036;-80
2021/06/19 13:13:06;;;;;;;5.43;3.28;;;;;;;;;;5078702;28;20025;-80
2021/06/19 13:15:32;;;;;;;4.88;3.20;;;;;;;;;;5078532;28;20082;-80
2021/06/19 13:17:58;;;;;;;5.38;3.30;;;;;;;;;;5078764;28;20034;-80
2021/06/19 13:20:37;;;;;;;3.75;2.85;;;;;;;;;;5078770;28;20052;-80
2021/06/19 13:23:04;;;;;;;5.85;3.15;;;;;;;;;;5077581;28;20318;-80
2021/06/19 13:25:49;;;;;;;5.30;3.13;;;;;;;;;;5078480;28;20096;-80
2021/06/19 13:28:15;;;;;;;6.03;3.20;;;;;;;;;;5078612;28;20099;-80
2021/06/19 13:30:41;;;;;;;4.40;2.92;;;;;;;;;;5078492;28;20039;-80
2021/06/19 13:33:07;;;;;;;5.88;3.35;;;;;;;;;;5077600;28;20033;-80
2021/06/19 13:35:49;;;;;;;3.33;2.55;;;;;;;;;;5078307;28;20031;-79
2021/06/19 13:38:16;;;;;;;3.78;2.85;;;;;;;;;;5078326;28;20435;-79
2021/06/19 13:40:42;;;;;;;6.60;2.80;;;;;;;;;;5078405;28;20029;-80
2021/06/19 13:43:08;;;;;;;5.22;2.70;;;;;;;;;;5077932;28;20119;-80
2021/06/19 13:45:34;;;;;;;4.43;2.70;;;;;;;;;;5078240;28;20425;-79
2021/06/19 13:48:01;;;;;;;5.63;2.88;;;;;;;;;;5077177;28;20039;-79
2021/06/19 13:50:28;;;;;;;4.25;2.72;;;;;;;;;;5077017;28;20426;-80
2021/06/19 13:52:54;;;;;;;4.72;2.60;;;;;;;;;;5098147;28;20024;-80
2021/06/19 13:55:22;;;;;;;6.45;2.70;;;;;;;;;;5097729;28;20482;-80
2021/06/19 13:57:48;;;;;;;2.70;2.50;;;;;;;;;;5098069;28;20361;-80
2021/06/19 14:00:14;;;;;;;2.85;2.33;;;;;;;;;;5098091;28;20028;-80
2021/06/19 14:02:40;;;;;;;5.80;2.60;;;;;;;;;;5097873;28;20024;-80
2021/06/19 14:05:06;;;;;;;6.50;2.90;;;;;;;;;;5097975;28;20024;-80
2021/06/19 14:07:33;;;;;;;6.15;2.55;;;;;;;;;;5097912;28;20032;-80
2021/06/19 14:09:59;;;;;;;3.33;2.22;;;;;;;;;;5097979;28;20414;-80
2021/06/19 14:12:25;;;;;;;3.92;2.50;;;;;;;;;;5097920;28;20110;-80
2021/06/19 14:14:51;;;;;;;2.83;2.30;;;;;;;;;;5096760;28;20051;-80
2021/06/19 14:17:17;;;;;;;6.20;2.30;;;;;;;;;;5097619;28;20032;-80
2021/06/19 14:19:43;;;;;;;4.25;2.60;;;;;;;;;;5097871;28;20028;-79
2021/06/19 14:22:09;;;;;;;3.88;2.47;;;;;;;;;;5081319;28;20016;-79
2021/06/19 14:24:35;;;;;;;4.30;2.70;;;;;;;;;;5077170;28;20074;-80
2021/06/19 14:27:07;;;;;;;5.25;2.20;;;;;;;;;;5077420;28;20438;-80
2021/06/19 14:29:33;;;;;;;5.68;2.55;;;;;;;;;;5077285;28;20028;-80
2021/06/19 14:31:59;;;;;;;2.85;2.20;;;;;;;;;;5076784;28;20028;-80
2021/06/19 14:34:25;;;;;;;5.97;2.45;;;;;;;;;;5077074;28;20024;-80
2021/06/19 14:36:51;;;;;;;7.72;2.30;;;;;;;;;;5075976;28;20036;-80
2021/06/19 14:39:17;;;;;;;4.85;2.95;;;;;;;;;;5077006;28;20033;-80
2021/06/19 14:41:43;;;;;;;3.30;2.30;;;;;;;;;;5077121;28;20028;-80
2021/06/19 14:44:10;;;;;;;5.82;2.10;;;;;;;;;;5076700;28;20029;-80
2021/06/19 14:46:36;;;;;;;4.55;2.28;;;;;;;;;;5076879;28;20030;-80
2021/06/19 14:49:02;;;;;;;3.72;2.13;;;;;;;;;;5077013;28;20025;-79
2021/06/19 14:51:29;;;;;;;3.78;2.30;;;;;;;;;;5076533;28;20031;-80
2021/06/19 14:53:55;;;;;;;7.78;2.70;;;;;;;;;;5075948;28;20028;-80